Decoded Metar for KMAO (MARION in SC, USA) (IATA:MAO) | Meteo·Mobile Aviation Weather
aviador You're here:

KMAO Decoded Metar

MARION in SC, USA
Report Time2019-09-21 09:15:00
UTC Time2019-09-21 09:19:49
Flight Rules vfr VFR
WindCalm
Visibility9999 m
Phenomena:N/A
Clouds:N/A
CeilingNone
Temp12°C (ISA -3)
Dew Point12°C (100% RH)
QNH1025 hPa
Density Alt-463 ft
Elevation92 ft
Report Wrong Elevation
Raw Report
KMAO 210915Z AUTO 00000KT 10SM CLR 12/12 A3028 RMK AO2=

Extra information for KMAO:More info

Metar Taf Metar & Taf Last 4 Metars F.Rules Stats Wind Profile Meteogram Temp Stats Airport Information Weather charts Add Link Nearby VenuesMetar ALERT Operation Metar Decoded Social comments

AIRNAV info for KMAO